Saturday, November 18, 2017, 9:31 PM GMT
Back to Local

CWRK, Bancroft Automatic Weather Reporting System

Location: , , Canada Lat: 45.067
Local Time: 9:31 PM GMT (21:31 GMT) Lon: -77.867
Time Zone: GMT Elev: 1085 ft

Show me the last for .
Show Coded

Time T Td Feel RH Dir Speed Gust Alt SLP Vis Weather Sky Remarks
2017-11-18 21:00 34 34 - 100 - Calm - - 29.41 0 None
2017-11-18 20:00 34 34 - 100 100° 2 - - 29.43 0 1-hr Precip Total: 0.01"
2017-11-18 19:00 33 33 - 100 120° 1 - - 29.48 0 1-hr Precip Total: 0.01"
2017-11-18 18:00 33 33 - 100 160° 1 - - 29.51 0 None
2017-11-18 17:00 33 33 - 100 150° 2 - - 29.51 0 1-hr Precip Total: 0.03"
2017-11-18 16:00 32 32 - 100 140° 2 - - 29.57 0 1-hr Precip Total: 0.04"
2017-11-18 15:00 33 31 30 92 140° 3 - - 29.59 0 1-hr Precip Total: 0.01"
2017-11-18 14:00 30 30 27 97 140° 3 - - 29.62 0 1-hr Precip Total: 0.04"
2017-11-18 13:00 30 29 27 92 140° 3 - - 29.64 0 1-hr Precip Total: 0.04"
2017-11-18 12:00 30 26 - 82 140° 2 - - 29.70 0 None
2017-11-18 11:00 30 24 - 80 120° 2 - - 29.70 0 None
2017-11-18 10:00 30 26 26 84 170° 3 - - 29.75 0 None
2017-11-18 09:00 29 26 26 85 150° 3 - - 29.77 0 None
2017-11-18 08:00 28 22 24 77 130° 3 - - 29.80 0 None
2017-11-18 07:00 28 21 - 75 120° 2 - - 29.84 0 None
2017-11-18 06:00 28 20 24 69 140° 3 - - 29.89 0 None
2017-11-18 05:00 28 17 - 61 160° 2 - - 29.93 0 None
2017-11-18 04:00 29 16 - 59 160° 2 - - 29.96 0 None
2017-11-18 03:00 28 17 - 62 140° 1 - - 30.00 0 None
2017-11-18 02:00 28 16 - 58 170° 2 - - 30.02 0 None
2017-11-18 01:00 28 16 - 58 170° 1 - - 30.05 0 None
2017-11-18 00:00 25 18 - 75 - Calm - - 30.06 0 None
2017-11-17 23:00 25 19 - 76 - Calm - - 30.10 0 None
2017-11-17 22:00 28 15 - 57 90° 1 - - 30.11 0 None

Support USWX by starting your Amazon purchase here.